IBE09SH LEAS-LEIB
Flight info
| Callsign | IBE09SH |
|---|---|
| Flight time | 1h 16m |
| Altitude | 23000 |
| Route | XONDA M30 OMESI/N0441F330 M30 ZMR/N0441F320 L155 AVILA/N0441F340 L155 NVS M871 MINGU/N0439F320 M871 LASPO Z224 VARUT |
| Aircraft | MD82/M-SDFGIRWY/S |
Departure
| Time | 2026-04-26 12:56 |
|---|---|
| Airport | Asturias Airport (LEAS) |
Arrival
| Time | 2026-04-26 14:13 |
|---|---|
| Airport | Ibiza Airport (LEIB) |
| Time | Latitude | Longitude | Altitude | Speed | Heading |
|---|---|---|---|---|---|
| 2026-04-26 12:33 | 43.56041 | -6.03158 | 420 ft | 0 kts | 288° |
| 2026-04-26 12:36 | 43.56041 | -6.03159 | 420 ft | 0 kts | 288° |
| 2026-04-26 12:36 | 43.56043 | -6.03166 | 418 ft | 1 kts | 288° |
| 2026-04-26 12:36 | 43.56046 | -6.03180 | 418 ft | 2 kts | 288° |
| 2026-04-26 12:36 | 43.56052 | -6.03202 | 418 ft | 3 kts | 288° |
| 2026-04-26 12:37 | 43.56063 | -6.03226 | 414 ft | 3 kts | 318° |
| 2026-04-26 12:37 | 43.56083 | -6.03232 | 416 ft | 3 kts | 359° |
| 2026-04-26 12:37 | 43.56109 | -6.03230 | 423 ft | 4 kts | 359° |
| 2026-04-26 12:37 | 43.56131 | -6.03243 | 427 ft | 3 kts | 321° |
| 2026-04-26 12:38 | 43.56146 | -6.03269 | 418 ft | 3 kts | 301° |
| 2026-04-26 12:38 | 43.56156 | -6.03310 | 421 ft | 5 kts | 289° |
| 2026-04-26 12:38 | 43.56167 | -6.03358 | 422 ft | 5 kts | 288° |
| 2026-04-26 12:38 | 43.56179 | -6.03409 | 427 ft | 6 kts | 287° |
| 2026-04-26 12:39 | 43.56193 | -6.03471 | 424 ft | 8 kts | 287° |
| 2026-04-26 12:39 | 43.56212 | -6.03552 | 416 ft | 10 kts | 288° |
| 2026-04-26 12:39 | 43.56236 | -6.03653 | 417 ft | 12 kts | 287° |
| 2026-04-26 12:39 | 43.56260 | -6.03763 | 424 ft | 12 kts | 287° |
| 2026-04-26 12:40 | 43.56289 | -6.03879 | 417 ft | 14 kts | 289° |
| 2026-04-26 12:40 | 43.56322 | -6.04014 | 421 ft | 15 kts | 288° |
| 2026-04-26 12:40 | 43.56355 | -6.04152 | 418 ft | 15 kts | 288° |
| 2026-04-26 12:40 | 43.56387 | -6.04285 | 418 ft | 15 kts | 288° |
| 2026-04-26 12:41 | 43.56419 | -6.04417 | 418 ft | 14 kts | 288° |
| 2026-04-26 12:41 | 43.56446 | -6.04533 | 422 ft | 12 kts | 288° |
| 2026-04-26 12:41 | 43.56472 | -6.04642 | 416 ft | 13 kts | 289° |
| 2026-04-26 12:41 | 43.56533 | -6.04720 | 420 ft | 12 kts | 334° |
| 2026-04-26 12:42 | 43.56598 | -6.04762 | 421 ft | 7 kts | 342° |
| 2026-04-26 12:42 | 43.56622 | -6.04763 | 419 ft | 3 kts | 8° |
| 2026-04-26 12:42 | 43.56645 | -6.04752 | 422 ft | 5 kts | 20° |
| 2026-04-26 12:42 | 43.56657 | -6.04735 | 418 ft | 2 kts | 77° |
| 2026-04-26 12:43 | 43.56655 | -6.04722 | 418 ft | 0 kts | 106° |
| 2026-04-26 12:44 | 43.56655 | -6.04721 | 418 ft | 0 kts | 107° |
| 2026-04-26 12:45 | 43.56654 | -6.04719 | 418 ft | 0 kts | 107° |
| 2026-04-26 12:55 | 43.56602 | -6.04492 | 426 ft | 60 kts | 107° |
| 2026-04-26 12:56 | 43.56395 | -6.03621 | 420 ft | 127 kts | 107° |
| 2026-04-26 12:56 | 43.56063 | -6.02235 | 547 ft | 168 kts | 107° |
| 2026-04-26 12:56 | 43.55687 | -6.00758 | 1477 ft | 158 kts | 107° |
| 2026-04-26 12:56 | 43.55325 | -5.99309 | 2224 ft | 166 kts | 108° |
| 2026-04-26 12:57 | 43.54965 | -5.97803 | 2974 ft | 167 kts | 108° |
| 2026-04-26 12:57 | 43.54597 | -5.96247 | 3687 ft | 171 kts | 108° |
| 2026-04-26 12:57 | 43.54249 | -5.94699 | 4379 ft | 174 kts | 107° |
| 2026-04-26 12:58 | 43.53502 | -5.91395 | 5547 ft | 191 kts | 108° |
| 2026-04-26 12:58 | 43.52828 | -5.89767 | 6043 ft | 202 kts | 136° |
| 2026-04-26 12:58 | 43.51647 | -5.88619 | 6576 ft | 214 kts | 155° |
| 2026-04-26 12:58 | 43.50174 | -5.88206 | 7062 ft | 223 kts | 186° |
| 2026-04-26 12:59 | 43.48636 | -5.88578 | 7550 ft | 224 kts | 193° |
| 2026-04-26 12:59 | 43.47110 | -5.89091 | 8019 ft | 228 kts | 195° |
| 2026-04-26 12:59 | 43.45564 | -5.89691 | 8477 ft | 235 kts | 198° |
| 2026-04-26 12:59 | 43.43951 | -5.90391 | 8835 ft | 251 kts | 199° |
| 2026-04-26 13:00 | 43.42249 | -5.91178 | 9252 ft | 265 kts | 199° |
| 2026-04-26 13:00 | 43.40457 | -5.92034 | 9693 ft | 279 kts | 200° |
| 2026-04-26 13:00 | 43.38615 | -5.92927 | 10131 ft | 292 kts | 200° |
| 2026-04-26 13:00 | 43.36648 | -5.93887 | 10534 ft | 304 kts | 200° |
| 2026-04-26 13:01 | 43.34587 | -5.94757 | 10910 ft | 317 kts | 188° |
| 2026-04-26 13:01 | 43.32349 | -5.94771 | 11335 ft | 328 kts | 175° |
| 2026-04-26 13:01 | 43.30049 | -5.94433 | 11742 ft | 335 kts | 174° |
| 2026-04-26 13:01 | 43.27717 | -5.94069 | 12143 ft | 340 kts | 174° |
| 2026-04-26 13:02 | 43.25354 | -5.93704 | 12532 ft | 341 kts | 174° |
| 2026-04-26 13:02 | 43.22999 | -5.93340 | 12921 ft | 341 kts | 174° |
| 2026-04-26 13:02 | 43.20646 | -5.92988 | 13512 ft | 341 kts | 174° |
| 2026-04-26 13:02 | 43.18270 | -5.92652 | 14099 ft | 343 kts | 175° |
| 2026-04-26 13:03 | 43.15915 | -5.92341 | 14667 ft | 345 kts | 175° |
| 2026-04-26 13:03 | 43.13524 | -5.92041 | 15242 ft | 346 kts | 175° |
| 2026-04-26 13:03 | 43.11124 | -5.91744 | 15818 ft | 347 kts | 175° |
| 2026-04-26 13:03 | 43.08707 | -5.91447 | 16420 ft | 348 kts | 175° |
| 2026-04-26 13:04 | 43.06294 | -5.91151 | 17025 ft | 349 kts | 175° |
| 2026-04-26 13:04 | 43.03878 | -5.90802 | 17639 ft | 349 kts | 173° |
| 2026-04-26 13:04 | 43.01463 | -5.90408 | 18275 ft | 349 kts | 173° |
| 2026-04-26 13:04 | 42.99052 | -5.89995 | 18847 ft | 349 kts | 173° |
| 2026-04-26 13:05 | 42.96650 | -5.89579 | 19410 ft | 347 kts | 173° |
| 2026-04-26 13:05 | 42.94257 | -5.89164 | 19977 ft | 346 kts | 173° |
| 2026-04-26 13:05 | 42.91880 | -5.88755 | 20557 ft | 343 kts | 173° |
| 2026-04-26 13:05 | 42.89524 | -5.88352 | 21153 ft | 340 kts | 174° |
| 2026-04-26 13:06 | 42.87189 | -5.87957 | 21754 ft | 335 kts | 174° |
| 2026-04-26 13:06 | 42.84889 | -5.87560 | 22350 ft | 330 kts | 173° |
| 2026-04-26 13:06 | 42.82666 | -5.87160 | 22968 ft | 323 kts | 173° |
| 2026-04-26 13:06 | 42.80432 | -5.86752 | 23610 ft | 316 kts | 173° |
| 2026-04-26 13:07 | 42.78312 | -5.86365 | 24163 ft | 308 kts | 173° |
| 2026-04-26 13:07 | 42.76219 | -5.85983 | 24696 ft | 299 kts | 173° |
| 2026-04-26 13:07 | 42.74190 | -5.85614 | 25248 ft | 289 kts | 174° |
| 2026-04-26 13:07 | 42.72229 | -5.85250 | 25806 ft | 279 kts | 173° |
| 2026-04-26 13:08 | 42.70950 | -5.85012 | 26183 ft | 270 kts | 174° |
| 2026-04-26 13:08 | 42.69122 | -5.84679 | 26648 ft | 262 kts | 174° |
| 2026-04-26 13:08 | 42.67336 | -5.84360 | 26837 ft | 263 kts | 174° |
| 2026-04-26 13:08 | 42.65516 | -5.84035 | 27005 ft | 265 kts | 174° |
| 2026-04-26 13:09 | 42.63680 | -5.83709 | 27135 ft | 268 kts | 174° |
| 2026-04-26 13:09 | 42.61820 | -5.83379 | 27269 ft | 271 kts | 174° |
| 2026-04-26 13:09 | 42.59936 | -5.83041 | 27420 ft | 274 kts | 174° |
| 2026-04-26 13:09 | 42.58030 | -5.82699 | 27536 ft | 279 kts | 173° |
| 2026-04-26 13:10 | 42.56085 | -5.82347 | 27615 ft | 285 kts | 174° |
| 2026-04-26 13:10 | 42.54091 | -5.81989 | 27659 ft | 293 kts | 174° |
| 2026-04-26 13:10 | 42.52033 | -5.81617 | 27688 ft | 302 kts | 173° |
| 2026-04-26 13:10 | 42.49917 | -5.81238 | 27720 ft | 311 kts | 173° |
| 2026-04-26 13:11 | 42.47737 | -5.80852 | 27741 ft | 321 kts | 173° |
| 2026-04-26 13:11 | 42.45492 | -5.80446 | 27765 ft | 331 kts | 173° |
| 2026-04-26 13:11 | 42.43178 | -5.80024 | 27782 ft | 341 kts | 173° |
| 2026-04-26 13:11 | 42.40789 | -5.79591 | 27794 ft | 352 kts | 173° |
| 2026-04-26 13:12 | 42.38327 | -5.79147 | 27805 ft | 363 kts | 173° |
| 2026-04-26 13:12 | 42.35784 | -5.78690 | 27816 ft | 374 kts | 173° |
| 2026-04-26 13:12 | 42.33172 | -5.78219 | 27994 ft | 380 kts | 173° |
| 2026-04-26 13:12 | 42.30567 | -5.77745 | 28268 ft | 384 kts | 173° |
| 2026-04-26 13:13 | 42.27906 | -5.77265 | 28548 ft | 387 kts | 173° |
| 2026-04-26 13:13 | 42.25222 | -5.76780 | 28817 ft | 391 kts | 173° |
| 2026-04-26 13:13 | 42.22512 | -5.76292 | 29006 ft | 396 kts | 173° |
| 2026-04-26 13:13 | 42.19751 | -5.75799 | 29084 ft | 404 kts | 173° |
| 2026-04-26 13:14 | 42.14036 | -5.74778 | 29139 ft | 423 kts | 173° |
| 2026-04-26 13:14 | 42.08077 | -5.73712 | 29147 ft | 441 kts | 173° |
| 2026-04-26 13:15 | 42.01880 | -5.72601 | 29143 ft | 454 kts | 173° |
| 2026-04-26 13:15 | 41.95636 | -5.71482 | 29133 ft | 456 kts | 173° |
| 2026-04-26 13:16 | 41.89345 | -5.70364 | 29133 ft | 455 kts | 173° |
| 2026-04-26 13:16 | 41.83065 | -5.69258 | 29130 ft | 454 kts | 173° |
| 2026-04-26 13:17 | 41.73646 | -5.67595 | 29133 ft | 455 kts | 173° |
| 2026-04-26 13:18 | 41.64206 | -5.65932 | 29133 ft | 456 kts | 172° |
| 2026-04-26 13:19 | 41.54789 | -5.64155 | 29128 ft | 458 kts | 164° |
| 2026-04-26 13:19 | 41.51867 | -5.62488 | 29147 ft | 460 kts | 146° |
| 2026-04-26 13:19 | 41.49331 | -5.59847 | 29162 ft | 464 kts | 137° |
| 2026-04-26 13:20 | 41.44629 | -5.53911 | 29140 ft | 466 kts | 135° |
| 2026-04-26 13:20 | 41.39959 | -5.47938 | 29127 ft | 465 kts | 136° |
| 2026-04-26 13:21 | 41.35220 | -5.42077 | 29126 ft | 464 kts | 137° |
| 2026-04-26 13:21 | 41.30473 | -5.36335 | 29124 ft | 463 kts | 137° |
| 2026-04-26 13:22 | 41.25690 | -5.30561 | 29131 ft | 463 kts | 137° |
| 2026-04-26 13:22 | 41.20917 | -5.24784 | 29130 ft | 463 kts | 137° |
| 2026-04-26 13:23 | 41.16137 | -5.19032 | 29131 ft | 463 kts | 137° |
| 2026-04-26 13:23 | 41.11392 | -5.13326 | 29132 ft | 462 kts | 137° |
| 2026-04-26 13:24 | 41.06638 | -5.07605 | 29130 ft | 461 kts | 137° |
| 2026-04-26 13:24 | 41.04272 | -5.04761 | 29291 ft | 456 kts | 137° |
| 2026-04-26 13:24 | 41.01925 | -5.01942 | 29570 ft | 455 kts | 137° |
| 2026-04-26 13:24 | 40.99571 | -4.99116 | 29850 ft | 457 kts | 137° |
| 2026-04-26 13:25 | 40.97214 | -4.96289 | 30140 ft | 458 kts | 137° |
| 2026-04-26 13:25 | 40.94852 | -4.93457 | 30389 ft | 459 kts | 138° |
| 2026-04-26 13:25 | 40.92477 | -4.90612 | 30623 ft | 460 kts | 137° |
| 2026-04-26 13:25 | 40.90132 | -4.87812 | 30859 ft | 461 kts | 138° |
| 2026-04-26 13:26 | 40.87712 | -4.84949 | 31119 ft | 461 kts | 138° |
| 2026-04-26 13:26 | 40.85347 | -4.82166 | 31358 ft | 461 kts | 138° |
| 2026-04-26 13:26 | 40.82950 | -4.79336 | 31608 ft | 462 kts | 138° |
| 2026-04-26 13:26 | 40.80557 | -4.76499 | 31862 ft | 463 kts | 138° |
| 2026-04-26 13:27 | 40.78164 | -4.73651 | 32127 ft | 463 kts | 138° |
| 2026-04-26 13:27 | 40.75772 | -4.70799 | 32376 ft | 463 kts | 137° |
| 2026-04-26 13:27 | 40.73379 | -4.67943 | 32632 ft | 464 kts | 137° |
| 2026-04-26 13:27 | 40.70986 | -4.65090 | 32888 ft | 464 kts | 137° |
| 2026-04-26 13:28 | 40.68578 | -4.62224 | 33030 ft | 467 kts | 137° |
| 2026-04-26 13:28 | 40.63742 | -4.56470 | 33118 ft | 476 kts | 136° |
| 2026-04-26 13:28 | 40.61588 | -4.53152 | 33131 ft | 480 kts | 121° |
| 2026-04-26 13:29 | 40.60232 | -4.49141 | 33154 ft | 483 kts | 104° |
| 2026-04-26 13:29 | 40.59352 | -4.40451 | 33148 ft | 475 kts | 99° |
| 2026-04-26 13:30 | 40.57757 | -4.32093 | 33128 ft | 468 kts | 108° |
| 2026-04-26 13:30 | 40.55638 | -4.24020 | 33126 ft | 467 kts | 110° |
| 2026-04-26 13:31 | 40.53436 | -4.15977 | 33124 ft | 468 kts | 110° |
| 2026-04-26 13:31 | 40.51277 | -4.07908 | 33132 ft | 468 kts | 109° |
| 2026-04-26 13:32 | 40.49155 | -3.99861 | 33139 ft | 468 kts | 109° |
| 2026-04-26 13:32 | 40.46997 | -3.91786 | 33122 ft | 468 kts | 110° |
| 2026-04-26 13:33 | 40.44832 | -3.83731 | 33121 ft | 468 kts | 110° |
| 2026-04-26 13:33 | 40.42669 | -3.75669 | 33123 ft | 468 kts | 110° |
| 2026-04-26 13:34 | 40.40508 | -3.67611 | 33127 ft | 468 kts | 109° |
| 2026-04-26 13:34 | 40.38365 | -3.59604 | 33125 ft | 468 kts | 110° |
| 2026-04-26 13:35 | 40.36204 | -3.51550 | 33124 ft | 468 kts | 110° |
| 2026-04-26 13:35 | 40.34013 | -3.43524 | 33122 ft | 468 kts | 110° |
| 2026-04-26 13:36 | 40.31808 | -3.35503 | 33122 ft | 468 kts | 110° |
| 2026-04-26 13:36 | 40.29609 | -3.27480 | 33117 ft | 468 kts | 110° |
| 2026-04-26 13:37 | 40.27429 | -3.19502 | 33113 ft | 467 kts | 110° |
| 2026-04-26 13:37 | 40.25237 | -3.11477 | 33112 ft | 467 kts | 110° |
| 2026-04-26 13:38 | 40.23049 | -3.03481 | 33110 ft | 466 kts | 110° |
| 2026-04-26 13:38 | 40.20840 | -2.95484 | 33106 ft | 466 kts | 110° |
| 2026-04-26 13:39 | 40.18617 | -2.87563 | 33109 ft | 466 kts | 110° |
| 2026-04-26 13:39 | 40.16387 | -2.79598 | 33107 ft | 466 kts | 110° |
| 2026-04-26 13:40 | 40.14164 | -2.71629 | 33103 ft | 466 kts | 110° |
| 2026-04-26 13:40 | 40.11960 | -2.63723 | 33107 ft | 466 kts | 110° |
| 2026-04-26 13:41 | 40.09742 | -2.55777 | 33111 ft | 466 kts | 110° |
| 2026-04-26 13:41 | 40.07499 | -2.47843 | 33106 ft | 465 kts | 111° |
| 2026-04-26 13:42 | 40.05145 | -2.39965 | 33110 ft | 466 kts | 111° |
| 2026-04-26 13:42 | 40.02887 | -2.32039 | 33110 ft | 465 kts | 109° |
| 2026-04-26 13:43 | 40.00704 | -2.24073 | 33116 ft | 465 kts | 109° |
| 2026-04-26 13:43 | 39.98564 | -2.16178 | 33119 ft | 464 kts | 108° |
| 2026-04-26 13:44 | 39.96607 | -2.08151 | 33121 ft | 464 kts | 106° |
| 2026-04-26 13:44 | 39.94771 | -2.00088 | 33120 ft | 463 kts | 106° |
| 2026-04-26 13:45 | 39.92932 | -1.92052 | 33124 ft | 462 kts | 106° |
| 2026-04-26 13:45 | 39.91070 | -1.84046 | 33127 ft | 461 kts | 107° |
| 2026-04-26 13:46 | 39.89212 | -1.76107 | 33127 ft | 460 kts | 106° |
| 2026-04-26 13:46 | 39.87348 | -1.68140 | 33131 ft | 459 kts | 106° |
| 2026-04-26 13:47 | 39.85483 | -1.60214 | 33134 ft | 457 kts | 107° |
| 2026-04-26 13:47 | 39.83594 | -1.52284 | 33129 ft | 457 kts | 107° |
| 2026-04-26 13:48 | 39.81732 | -1.44440 | 33123 ft | 456 kts | 107° |
| 2026-04-26 13:48 | 39.79844 | -1.36581 | 33115 ft | 455 kts | 107° |
| 2026-04-26 13:49 | 39.77153 | -1.29209 | 33126 ft | 458 kts | 131° |
| 2026-04-26 13:49 | 39.74719 | -1.26534 | 33136 ft | 461 kts | 148° |
| 2026-04-26 13:49 | 39.71868 | -1.24590 | 33135 ft | 463 kts | 154° |
| 2026-04-26 13:50 | 39.65945 | -1.21256 | 33108 ft | 464 kts | 155° |
| 2026-04-26 13:50 | 39.60037 | -1.17990 | 33101 ft | 463 kts | 154° |
| 2026-04-26 13:51 | 39.54567 | -1.13778 | 33114 ft | 456 kts | 131° |
| 2026-04-26 13:51 | 39.52682 | -1.10495 | 33135 ft | 454 kts | 120° |
| 2026-04-26 13:51 | 39.51126 | -1.06939 | 33132 ft | 454 kts | 117° |
| 2026-04-26 13:52 | 39.48236 | -0.99943 | 33123 ft | 456 kts | 117° |
| 2026-04-26 13:52 | 39.45236 | -0.92798 | 33127 ft | 453 kts | 118° |
| 2026-04-26 13:53 | 39.42153 | -0.85698 | 33124 ft | 450 kts | 119° |
| 2026-04-26 13:53 | 39.39047 | -0.78683 | 33126 ft | 447 kts | 119° |
| 2026-04-26 13:54 | 39.35925 | -0.71689 | 33128 ft | 451 kts | 119° |
| 2026-04-26 13:54 | 39.32786 | -0.64642 | 32969 ft | 457 kts | 119° |
| 2026-04-26 13:55 | 39.29603 | -0.57472 | 32218 ft | 468 kts | 119° |
| 2026-04-26 13:55 | 39.29058 | -0.56243 | 32094 ft | 468 kts | 119° |
| 2026-04-26 13:55 | 39.26301 | -0.45744 | 31047 ft | 463 kts | 104° |
| 2026-04-26 13:56 | 39.25524 | -0.41715 | 30656 ft | 462 kts | 104° |
| 2026-04-26 13:56 | 39.25006 | -0.39046 | 30408 ft | 463 kts | 104° |
| 2026-04-26 13:56 | 39.24210 | -0.35009 | 29990 ft | 466 kts | 104° |
| 2026-04-26 13:56 | 39.23383 | -0.30943 | 29542 ft | 469 kts | 105° |
| 2026-04-26 13:57 | 39.22532 | -0.26864 | 29109 ft | 472 kts | 105° |
| 2026-04-26 13:57 | 39.21666 | -0.22776 | 28681 ft | 473 kts | 105° |
| 2026-04-26 13:57 | 39.20795 | -0.18687 | 28260 ft | 473 kts | 105° |
| 2026-04-26 13:57 | 39.19924 | -0.14589 | 27836 ft | 474 kts | 105° |
| 2026-04-26 13:58 | 39.19052 | -0.10478 | 27420 ft | 476 kts | 105° |
| 2026-04-26 13:58 | 39.18181 | -0.06354 | 27014 ft | 478 kts | 105° |
| 2026-04-26 13:58 | 39.17309 | -0.02215 | 26610 ft | 479 kts | 105° |
| 2026-04-26 13:58 | 39.16414 | 0.01926 | 26209 ft | 480 kts | 105° |
| 2026-04-26 13:59 | 39.15501 | 0.06017 | 25822 ft | 481 kts | 105° |
| 2026-04-26 13:59 | 39.14581 | 0.10147 | 25433 ft | 475 kts | 105° |
| 2026-04-26 13:59 | 39.13700 | 0.14164 | 25041 ft | 458 kts | 105° |
| 2026-04-26 14:00 | 39.11280 | 0.25493 | 23891 ft | 418 kts | 104° |
| 2026-04-26 14:00 | 39.10522 | 0.29078 | 23360 ft | 410 kts | 104° |
| 2026-04-26 14:00 | 39.10029 | 0.31409 | 22988 ft | 406 kts | 104° |
| 2026-04-26 14:01 | 39.09046 | 0.36053 | 22215 ft | 398 kts | 104° |
| 2026-04-26 14:01 | 39.08322 | 0.39466 | 21648 ft | 393 kts | 105° |
| 2026-04-26 14:01 | 39.07605 | 0.42836 | 21090 ft | 388 kts | 105° |
| 2026-04-26 14:01 | 39.06896 | 0.46161 | 20543 ft | 383 kts | 105° |
| 2026-04-26 14:02 | 39.06192 | 0.49450 | 20008 ft | 379 kts | 105° |
| 2026-04-26 14:02 | 39.05480 | 0.52701 | 19483 ft | 376 kts | 105° |
| 2026-04-26 14:02 | 39.04766 | 0.55922 | 18964 ft | 372 kts | 105° |
| 2026-04-26 14:02 | 39.04067 | 0.59070 | 18462 ft | 369 kts | 105° |
| 2026-04-26 14:03 | 39.03367 | 0.62235 | 17807 ft | 366 kts | 105° |
| 2026-04-26 14:03 | 39.02680 | 0.65357 | 17147 ft | 360 kts | 105° |
| 2026-04-26 14:03 | 39.01914 | 0.68393 | 16505 ft | 354 kts | 113° |
| 2026-04-26 14:03 | 39.00847 | 0.71224 | 15837 ft | 347 kts | 117° |
| 2026-04-26 14:04 | 38.99716 | 0.73919 | 15215 ft | 338 kts | 118° |
| 2026-04-26 14:04 | 38.98596 | 0.76545 | 14582 ft | 330 kts | 119° |
| 2026-04-26 14:04 | 38.97382 | 0.79010 | 13970 ft | 324 kts | 124° |
| 2026-04-26 14:04 | 38.96076 | 0.81345 | 13280 ft | 318 kts | 125° |
| 2026-04-26 14:05 | 38.94800 | 0.83595 | 12618 ft | 313 kts | 124° |
| 2026-04-26 14:05 | 38.93543 | 0.85863 | 11960 ft | 308 kts | 124° |
| 2026-04-26 14:05 | 38.92335 | 0.88100 | 11306 ft | 301 kts | 123° |
| 2026-04-26 14:05 | 38.91165 | 0.90306 | 10682 ft | 296 kts | 123° |
| 2026-04-26 14:06 | 38.90028 | 0.92473 | 10059 ft | 289 kts | 123° |
| 2026-04-26 14:06 | 38.88916 | 0.94600 | 9380 ft | 284 kts | 123° |
| 2026-04-26 14:06 | 38.87826 | 0.96689 | 8716 ft | 279 kts | 123° |
| 2026-04-26 14:06 | 38.86750 | 0.98744 | 8058 ft | 276 kts | 123° |
| 2026-04-26 14:07 | 38.85685 | 1.00771 | 7418 ft | 272 kts | 123° |
| 2026-04-26 14:07 | 38.84627 | 1.02775 | 6802 ft | 270 kts | 123° |
| 2026-04-26 14:07 | 38.83593 | 1.04734 | 6198 ft | 267 kts | 123° |
| 2026-04-26 14:07 | 38.82559 | 1.06692 | 5648 ft | 262 kts | 123° |
| 2026-04-26 14:08 | 38.81551 | 1.08596 | 5298 ft | 255 kts | 123° |
| 2026-04-26 14:08 | 38.80562 | 1.10466 | 4996 ft | 251 kts | 123° |
| 2026-04-26 14:08 | 38.79589 | 1.12305 | 4650 ft | 248 kts | 123° |
| 2026-04-26 14:08 | 38.78777 | 1.14182 | 4300 ft | 236 kts | 104° |
| 2026-04-26 14:09 | 38.78798 | 1.16218 | 3979 ft | 229 kts | 73° |
| 2026-04-26 14:09 | 38.79368 | 1.18090 | 3624 ft | 220 kts | 66° |
| 2026-04-26 14:09 | 38.79997 | 1.19842 | 3189 ft | 214 kts | 65° |
| 2026-04-26 14:09 | 38.80657 | 1.21547 | 2635 ft | 213 kts | 63° |
| 2026-04-26 14:10 | 38.81352 | 1.23223 | 2073 ft | 214 kts | 62° |
| 2026-04-26 14:10 | 38.82079 | 1.24888 | 1558 ft | 212 kts | 61° |
| 2026-04-26 14:10 | 38.82780 | 1.26441 | 1332 ft | 189 kts | 62° |
| 2026-04-26 14:10 | 38.83378 | 1.27872 | 1170 ft | 179 kts | 63° |
| 2026-04-26 14:11 | 38.84448 | 1.30445 | 854 ft | 142 kts | 63° |
| 2026-04-26 14:11 | 38.84905 | 1.31547 | 678 ft | 142 kts | 64° |
| 2026-04-26 14:11 | 38.85362 | 1.32674 | 523 ft | 141 kts | 64° |
| 2026-04-26 14:12 | 38.85828 | 1.33795 | 375 ft | 142 kts | 64° |
| 2026-04-26 14:12 | 38.86265 | 1.34850 | 223 ft | 143 kts | 63° |
| 2026-04-26 14:12 | 38.86726 | 1.35959 | 49 ft | 138 kts | 64° |
| 2026-04-26 14:12 | 38.87135 | 1.36956 | 8 ft | 105 kts | 62° |
| 2026-04-26 14:13 | 38.87529 | 1.37807 | 6 ft | 16 kts | 35° |
| 2026-04-26 14:13 | 38.87593 | 1.37864 | 7 ft | 9 kts | 34° |
| 2026-04-26 14:13 | 38.87639 | 1.37904 | 8 ft | 8 kts | 33° |
| 2026-04-26 14:14 | 38.87685 | 1.37906 | 9 ft | 7 kts | 329° |
| 2026-04-26 14:14 | 38.87698 | 1.37856 | 9 ft | 6 kts | 252° |
| 2026-04-26 14:14 | 38.87674 | 1.37802 | 9 ft | 8 kts | 240° |
| 2026-04-26 14:14 | 38.87646 | 1.37737 | 9 ft | 9 kts | 240° |
| 2026-04-26 14:15 | 38.87613 | 1.37662 | 9 ft | 10 kts | 240° |
| 2026-04-26 14:15 | 38.87582 | 1.37591 | 9 ft | 8 kts | 245° |
| 2026-04-26 14:15 | 38.87604 | 1.37539 | 9 ft | 7 kts | 333° |
| 2026-04-26 14:15 | 38.87652 | 1.37509 | 9 ft | 7 kts | 334° |
| 2026-04-26 14:16 | 38.87688 | 1.37481 | 9 ft | 5 kts | 314° |
| 2026-04-26 14:16 | 38.87696 | 1.37434 | 9 ft | 6 kts | 258° |
| 2026-04-26 14:16 | 38.87678 | 1.37380 | 9 ft | 7 kts | 241° |
| 2026-04-26 14:16 | 38.87651 | 1.37318 | 9 ft | 9 kts | 241° |
| 2026-04-26 14:17 | 38.87621 | 1.37246 | 9 ft | 10 kts | 242° |
| 2026-04-26 14:17 | 38.87588 | 1.37164 | 9 ft | 9 kts | 243° |
| 2026-04-26 14:17 | 38.87555 | 1.37084 | 9 ft | 11 kts | 243° |
| 2026-04-26 14:17 | 38.87519 | 1.36995 | 9 ft | 12 kts | 243° |
| 2026-04-26 14:18 | 38.87495 | 1.36937 | 9 ft | 8 kts | 241° |
| 2026-04-26 14:18 | 38.87467 | 1.36871 | 9 ft | 9 kts | 241° |
| 2026-04-26 14:18 | 38.87434 | 1.36794 | 9 ft | 10 kts | 241° |
| 2026-04-26 14:18 | 38.87431 | 1.36776 | 9 ft | 1 kts | 292° |
| 2026-04-26 14:19 | 38.87440 | 1.36773 | 9 ft | 1 kts | 358° |
| 2026-04-26 14:19 | 38.87450 | 1.36776 | 9 ft | 1 kts | 14° |
| 2026-04-26 14:19 | 38.87455 | 1.36781 | 9 ft | 1 kts | 45° |
| 2026-04-26 14:19 | 38.87460 | 1.36782 | 9 ft | 2 kts | 6° |
| 2026-04-26 14:20 | 38.87484 | 1.36786 | 9 ft | 4 kts | 11° |
| 2026-04-26 14:20 | 38.87503 | 1.36794 | 9 ft | 0 kts | 18° |
| 2026-04-26 14:20 | 38.87504 | 1.36794 | 9 ft | 0 kts | 18° |